Time Latitude Longitude Accuracy (66% radius in meters) Altitude (meters) Speed (km/hour) Bearing (degrees) Battery (%) GPS flag
09:12:58 55.739233 37.297568 5 168 0.15185339748859 139.82264709473 75 1 delete
09:12:45 55.739247 37.297574 10 163 0 302.14102172852 75 1 delete
09:12:32 55.739247 37.297574 10 169 0 302.14102172852 75 1 delete
09:12:20 55.739247 37.297574 5 177 0 302.14102172852 75 1 delete
09:12:07 55.739247 37.297574 5 171 0 302.14102172852 75 1 delete
09:12:01 55.739250 37.297603 10 166 0.042274236679077 226.39961242676 75 1 delete
09:11:55 55.739258 37.297623 10 164 0 182.78338623047 75 1 delete
09:11:42 55.739263 37.297624 5 174 0 240.50129699707 75 1 delete
09:11:29 55.739270 37.297635 10 173 1.864572763443 248.42414855957 75 1 delete
09:11:25 55.739281 37.297669 5 173 2.535088300705 236.38282775879 75 1 delete
09:11:20 55.739308 37.297747 5 174 3.5278031826019 232.69789123535 75 1 delete
09:11:18 55.739343 37.297825 10 174 3.7059135437012 218.96376037598 75 1 delete
09:11:16 55.739396 37.297905 5 175 3.7416439056396 218.99197387695 75 1 delete
09:11:14 55.739443 37.297989 5 175 3.7906410694122 221.90519714355 75 1 delete
09:11:12 55.739484 37.298068 5 173 3.8528263568878 222.09977722168 75 1 delete
09:11:10 55.739531 37.298136 10 172 3.9395341873169 215.90087890625 75 1 delete
09:11:08 55.739587 37.298202 5 171 4.0453343391418 209.86734008789 75 1 delete
09:11:06 55.739646 37.298268 5 170 4.0725536346436 208.07438659668 75 1 delete
09:11:04 55.739702 37.298333 10 171 4.029595375061 225.9188079834 75 1 delete
09:11:03 55.739731 37.298397 10 171 3.9282813072205 241.25271606445 75 1 delete
09:11:02 55.739753 37.298490 5 171 3.7328803539276 257.56439208984 75 1 delete
09:11:01 55.739762 37.298590 5 171 3.4742195606232 268.71963500977 75 1 delete
09:11:00 55.739763 37.298688 5 170 3.1433200836182 274.17327880859 75 1 delete
09:10:58 55.739753 37.298864 5 170 2.6743566989899 274.56338500977 75 1 delete
09:10:56 55.739744 37.299000 5 171 2.4228255748749 269.74606323242 75 1 delete
09:10:54 55.739750 37.299116 5 174 2.1443607807159 264.21234130859 75 1 delete
09:10:52 55.739773 37.299252 5 177 1.871670126915 242.08544921875 75 1 delete
09:10:50 55.739813 37.299348 5 174 1.5629072189331 224.6773223877 75 1 delete
09:10:48 55.739858 37.299407 5 174 1.2367208003998 214.9725189209 75 1 delete
09:10:46 55.739901 37.299449 5 172 0.91547173261642 205.29679870605 75 1 delete
09:10:43 55.739937 37.299504 5 173 0.48984155058861 243.01235961914 75 1 delete
09:10:40 55.739967 37.299565 10 177 2.1567919254303 196.0203704834 75 1 delete
09:10:38 55.740017 37.299615 5 176 2.0411183834076 206.54002380371 75 1 delete
09:10:35 55.740071 37.299692 10 175 1.9127299785614 219.56707763672 75 1 delete
09:10:31 55.740060 37.299790 5 178 2.0528001785278 324.09158325195 75 1 delete
09:10:29 55.740033 37.299872 5 175 2.0012764930725 294.76635742188 75 1 delete
09:10:27 55.740014 37.299953 10 174 1.9019795656204 296.46954345703 75 1 delete
09:10:24 55.739994 37.300067 5 175 1.8387120962143 288.20574951172 75 1 delete
09:10:22 55.739984 37.300152 5 177 1.789306640625 292.73983764648 75 1 delete
09:10:20 55.739975 37.300185 5 174 1.7580360174179 298.31768798828 75 1 delete
09:10:17 55.739949 37.300276 5 174 1.7391678094864 285.08279418945 75 1 delete
09:10:13 55.739940 37.300370 5 173 1.9300218820572 269.09100341797 75 1 delete
09:10:10 55.739928 37.300453 5 176 2.0180177688599 315.15374755859 75 1 delete
09:10:07 55.739902 37.300544 5 174 2.0822601318359 302.20935058594 75 1 delete
09:10:04 55.739888 37.300656 5 174 2.1311140060425 227.51811218262 75 1 delete
09:10:01 55.739931 37.300722 5 174 2.2045328617096 205.33351135254 75 1 delete
09:09:58 55.739966 37.300792 10 172 2.3647754192352 252.97793579102 75 1 delete
09:09:57 55.739970 37.300822 10 171 2.4551796913147 232.86187744141 75 1 delete
09:09:55 55.739990 37.300886 5 172 2.5505666732788 230.49429321289 75 1 delete
09:09:52 55.740027 37.300982 5 171 2.6670589447021 217.71574401855 75 1 delete